Time;durP1;ratioP1;P1;durP2;ratioP2;P2;SDS_P1;SDS_P2;PMS_P1;PMS_P2;Temp;Humidity;BMP_temperature;BMP_pressure;BME280_temperature;BME280_humidity;BME280_pressure;Samples;Min_cycle;Max_cycle;Signal;HPM_P1;HPM_P2
2022/12/30 00:01:41;;;;;;;5.63;1.00;;;7.10;95.00;;;;;;4888224;29;20060;-95
2022/12/30 00:04:16;;;;;;;5.55;0.95;;;7.10;95.00;;;;;;4883422;29;20040;-94
2022/12/30 00:11:00;;;;;;;6.70;1.25;;;7.10;94.90;;;;;;4870548;29;20037;-96
2022/12/30 00:34:04;;;;;;;5.78;1.48;;;6.60;95.30;;;;;;4911402;29;21034;-86
2022/12/30 00:36:31;;;;;;;4.45;0.68;;;6.60;95.30;;;;;;4904056;29;20486;-84
2022/12/30 00:38:58;;;;;;;5.00;0.77;;;6.50;95.30;;;;;;4860935;29;20482;-84
2022/12/30 00:44:11;;;;;;;5.00;0.73;;;6.50;95.40;;;;;;4893575;29;20103;-84
2022/12/30 00:46:40;;;;;;;5.05;0.82;;;6.40;95.40;;;;;;4882267;29;20482;-83
2022/12/30 00:57:25;;;;;;;6.35;0.90;;;6.40;95.50;;;;;;4910252;29;20543;-81
2022/12/30 00:59:52;;;;;;;3.63;0.93;;;6.40;95.50;;;;;;4910923;29;20044;-83
2022/12/30 01:02:19;;;;;;;6.72;1.15;;;6.40;95.50;;;;;;4912023;29;20078;-83
2022/12/30 01:04:46;;;;;;;7.32;1.00;;;6.30;95.50;;;;;;4911577;29;20051;-83
2022/12/30 01:07:13;;;;;;;5.15;0.82;;;6.30;95.50;;;;;;4932384;29;20117;-82
2022/12/30 01:09:40;;;;;;;4.63;0.60;;;6.30;95.50;;;;;;4900310;29;20072;-82
2022/12/30 01:12:08;;;;;;;5.75;1.05;;;6.30;95.50;;;;;;4901057;29;20047;-83
2022/12/30 01:14:44;;;;;;;10.77;1.10;;;6.30;95.50;;;;;;4913473;29;20048;-83
2022/12/30 01:17:15;;;;;;;4.13;0.90;;;6.30;95.50;;;;;;4940893;28;20097;-83
2022/12/30 01:19:42;;;;;;;4.47;0.60;;;6.30;95.60;;;;;;4932062;29;20044;-82
2022/12/30 01:22:09;;;;;;;7.57;1.08;;;6.30;95.60;;;;;;4936454;29;20046;-82
2022/12/30 01:24:36;;;;;;;5.93;1.15;;;6.30;95.60;;;;;;4916002;29;20050;-82
2022/12/30 01:27:04;;;;;;;5.82;1.00;;;6.30;95.70;;;;;;4909993;29;20036;-82
2022/12/30 01:29:39;;;;;;;4.38;0.52;;;6.30;95.70;;;;;;4916108;29;20047;-82
2022/12/30 01:32:08;;;;;;;2.50;0.40;;;6.20;95.70;;;;;;4952430;29;20150;-83
2022/12/30 01:34:36;;;;;;;4.72;0.95;;;6.20;95.70;;;;;;4927323;29;20055;-82
2022/12/30 01:37:04;;;;;;;4.80;0.68;;;6.20;95.80;;;;;;4932501;29;20075;-82
2022/12/30 01:39:31;;;;;;;4.07;0.65;;;6.20;95.80;;;;;;4919175;29;20053;-82
2022/12/30 01:41:58;;;;;;;3.40;0.80;;;6.10;95.80;;;;;;4905614;29;20048;-82
2022/12/30 01:44:56;;;;;;;3.50;0.60;;;6.10;95.90;;;;;;4947293;29;20039;-82
2022/12/30 01:47:32;;;;;;;3.38;0.85;;;6.10;95.90;;;;;;4932348;29;20411;-82
2022/12/30 01:50:31;;;;;;;5.10;0.68;;;6.10;95.90;;;;;;4918978;29;20051;-82
2022/12/30 01:53:04;;;;;;;2.63;0.38;;;6.10;95.90;;;;;;4913786;29;20079;-82
2022/12/30 01:55:45;;;;;;;3.13;0.55;;;6.10;95.90;;;;;;4916803;29;20098;-82
2022/12/30 01:58:17;;;;;;;3.50;0.50;;;6.00;95.90;;;;;;4903452;29;20052;-82
2022/12/30 02:00:45;;;;;;;3.72;0.85;;;6.00;96.00;;;;;;4933611;29;20055;-82
2022/12/30 02:03:13;;;;;;;4.40;0.60;;;6.00;96.00;;;;;;4914047;29;20094;-82
2022/12/30 02:05:42;;;;;;;3.85;0.60;;;5.90;96.10;;;;;;4920740;29;20051;-82
2022/12/30 02:08:12;;;;;;;4.40;0.65;;;5.90;96.10;;;;;;4910603;29;20051;-82
2022/12/30 02:10:42;;;;;;;4.80;0.52;;;5.90;96.10;;;;;;4924417;29;20044;-82
2022/12/30 02:13:14;;;;;;;1.90;0.60;;;5.90;96.10;;;;;;4948327;29;20508;-82
2022/12/30 02:15:56;;;;;;;3.15;0.45;;;5.90;96.20;;;;;;4914498;29;20089;-82
2022/12/30 02:18:41;;;;;;;1.73;0.40;;;5.90;96.20;;;;;;4912686;29;20043;-82
2022/12/30 02:21:26;;;;;;;3.20;0.50;;;5.90;96.20;;;;;;4905404;29;20043;-83
2022/12/30 02:24:18;;;;;;;1.98;0.50;;;5.90;96.20;;;;;;4921972;29;20094;-82
2022/12/30 02:27:07;;;;;;;4.97;0.60;;;5.90;96.20;;;;;;4931867;29;20110;-82
2022/12/30 02:29:46;;;;;;;1.85;0.40;;;5.80;96.20;;;;;;4915539;29;20052;-82
2022/12/30 02:32:46;;;;;;;2.35;0.30;;;5.80;96.20;;;;;;4902877;29;20075;-83
2022/12/30 02:35:54;;;;;;;3.90;0.60;;;5.80;96.20;;;;;;4918005;29;20039;-82
2022/12/30 02:38:29;;;;;;;2.47;0.35;;;5.80;96.20;;;;;;4901930;29;20054;-82
2022/12/30 02:44:38;;;;;;;2.17;0.40;;;5.70;96.30;;;;;;4930181;29;20055;-82
2022/12/30 02:47:31;;;;;;;1.23;0.25;;;5.70;96.40;;;;;;4955337;28;20514;-82
2022/12/30 02:52:51;;;;;;;1.17;0.20;;;5.60;96.40;;;;;;4932042;29;20518;-82
2022/12/30 02:55:18;;;;;;;1.23;0.45;;;5.60;96.50;;;;;;4960804;29;20382;-83
2022/12/30 02:57:45;;;;;;;2.80;0.45;;;5.60;96.50;;;;;;4927579;29;20042;-83
2022/12/30 03:06:26;;;;;;;2.38;0.30;;;5.60;96.50;;;;;;4930049;29;20039;-83
2022/12/30 03:09:03;;;;;;;3.30;0.50;;;5.60;96.50;;;;;;4919475;29;20111;-82
2022/12/30 03:11:46;;;;;;;1.92;0.60;;;5.60;96.50;;;;;;4920030;29;20050;-82
2022/12/30 03:14:32;;;;;;;3.58;0.30;;;5.60;96.50;;;;;;4914319;29;20044;-82
2022/12/30 03:17:12;;;;;;;0.85;0.20;;;5.60;96.50;;;;;;4933534;29;20051;-82
2022/12/30 03:19:43;;;;;;;2.75;0.40;;;5.60;96.50;;;;;;4922084;29;20103;-82
2022/12/30 03:27:48;;;;;;;1.92;0.40;;;5.60;96.50;;;;;;4931990;29;20483;-82
2022/12/30 03:30:16;;;;;;;2.42;0.20;;;5.50;96.60;;;;;;4919072;29;20144;-82
2022/12/30 03:32:44;;;;;;;2.97;0.93;;;5.50;96.90;;;;;;4924421;29;20051;-82
2022/12/30 03:35:11;;;;;;;3.88;0.55;;;5.50;96.70;;;;;;4898803;29;20067;-82
2022/12/30 03:37:51;;;;;;;9.90;0.88;;;5.50;96.70;;;;;;4919602;29;20106;-82
2022/12/30 03:40:28;;;;;;;2.22;0.40;;;5.50;96.60;;;;;;4916096;29;20047;-82
2022/12/30 03:42:55;;;;;;;2.88;0.88;;;5.60;96.60;;;;;;4933693;29;20464;-82
2022/12/30 03:45:23;;;;;;;3.97;0.43;;;5.50;96.60;;;;;;4895440;29;20047;-82
2022/12/30 03:47:50;;;;;;;3.03;0.40;;;5.50;96.60;;;;;;4901070;29;20051;-83
2022/12/30 03:50:17;;;;;;;2.25;0.30;;;5.50;96.60;;;;;;4888364;29;20076;-82
2022/12/30 03:52:44;;;;;;;3.05;0.38;;;5.50;96.70;;;;;;4895852;29;20056;-82
2022/12/30 03:55:11;;;;;;;3.15;0.35;;;5.50;96.70;;;;;;4895850;29;20206;-82
2022/12/30 03:57:38;;;;;;;1.00;0.25;;;5.40;96.70;;;;;;4931307;29;20048;-81
2022/12/30 04:00:08;;;;;;;1.80;0.20;;;5.40;96.70;;;;;;4902284;29;20047;-82
2022/12/30 04:02:38;;;;;;;1.27;0.30;;;5.40;96.80;;;;;;4915980;29;20052;-82
2022/12/30 04:05:07;;;;;;;2.13;0.28;;;5.40;96.80;;;;;;4911262;29;20055;-82
2022/12/30 04:07:34;;;;;;;3.10;0.38;;;5.30;96.80;;;;;;4905055;29;20039;-82
2022/12/30 04:10:02;;;;;;;1.23;0.43;;;5.30;96.80;;;;;;4912434;29;20040;-81
2022/12/30 04:12:29;;;;;;;1.55;0.32;;;5.30;96.90;;;;;;4902467;29;20050;-82
2022/12/30 04:14:56;;;;;;;4.55;0.73;;;5.30;96.90;;;;;;4936125;29;20036;-82
2022/12/30 04:17:23;;;;;;;4.80;1.10;;;5.20;96.90;;;;;;4877571;29;20083;-82
2022/12/30 04:19:50;;;;;;;3.70;1.00;;;5.30;96.90;;;;;;4889046;29;20491;-81
2022/12/30 04:22:18;;;;;;;2.58;0.47;;;5.30;96.80;;;;;;4886483;29;20042;-82
2022/12/30 04:24:45;;;;;;;3.75;0.80;;;5.30;96.80;;;;;;4921914;29;20036;-82
2022/12/30 04:27:12;;;;;;;4.78;0.50;;;5.30;96.80;;;;;;4886432;29;20048;-82
2022/12/30 04:29:39;;;;;;;4.47;0.50;;;5.30;96.80;;;;;;4913879;29;20655;-82
2022/12/30 04:32:06;;;;;;;2.88;0.60;;;5.20;96.80;;;;;;4887418;29;20041;-84
2022/12/30 04:34:33;;;;;;;2.50;0.73;;;5.20;96.80;;;;;;4896691;29;20142;-84
2022/12/30 04:37:00;;;;;;;3.08;0.45;;;5.10;96.80;;;;;;4917609;29;20459;-84
2022/12/30 04:39:27;;;;;;;3.40;0.40;;;5.10;96.90;;;;;;4879609;29;20063;-84
2022/12/30 04:41:54;;;;;;;1.70;0.40;;;5.10;96.90;;;;;;4905095;29;20433;-84
2022/12/30 04:44:21;;;;;;;2.95;0.28;;;5.10;97.00;;;;;;4882233;29;20100;-84
2022/12/30 04:46:49;;;;;;;2.60;0.40;;;5.10;97.00;;;;;;4898916;29;20048;-82
2022/12/30 04:49:16;;;;;;;2.53;0.30;;;5.00;97.00;;;;;;4891815;29;20383;-82
2022/12/30 04:51:43;;;;;;;4.38;0.47;;;5.00;97.00;;;;;;4917313;29;20036;-81
2022/12/30 04:54:10;;;;;;;3.03;0.63;;;5.00;97.00;;;;;;4926348;29;20048;-81
2022/12/30 04:56:37;;;;;;;3.42;0.80;;;5.00;97.00;;;;;;4921930;29;20429;-82
2022/12/30 04:59:04;;;;;;;5.95;0.50;;;5.00;97.00;;;;;;4893680;29;20158;-81
2022/12/30 05:01:31;;;;;;;1.83;0.20;;;5.00;97.00;;;;;;4914619;29;20446;-81
2022/12/30 05:03:58;;;;;;;4.03;0.55;;;5.00;97.00;;;;;;4904489;29;20048;-82
2022/12/30 05:06:25;;;;;;;2.33;0.55;;;5.00;97.00;;;;;;4904199;29;20458;-81
2022/12/30 05:08:55;;;;;;;4.75;1.20;;;5.00;97.00;;;;;;4917338;29;20050;-82
2022/12/30 05:11:25;;;;;;;4.10;0.52;;;4.90;97.10;;;;;;4895518;29;20055;-82
2022/12/30 05:13:52;;;;;;;4.30;0.60;;;5.00;97.10;;;;;;4910723;29;20075;-81
2022/12/30 05:16:19;;;;;;;4.35;0.70;;;5.00;97.00;;;;;;4908985;29;20047;-81
2022/12/30 05:18:46;;;;;;;2.28;0.40;;;5.00;97.00;;;;;;4882719;29;20060;-81
2022/12/30 05:21:13;;;;;;;2.15;0.68;;;5.00;97.00;;;;;;4953690;29;20044;-81
2022/12/30 05:26:26;;;;;;;3.58;0.90;;;5.00;97.10;;;;;;4938064;29;20047;-82
2022/12/30 05:28:53;;;;;;;3.95;0.77;;;4.90;97.10;;;;;;4903977;29;20067;-82
2022/12/30 05:31:20;;;;;;;3.45;0.70;;;4.90;97.10;;;;;;4915898;29;20146;-82
2022/12/30 05:33:47;;;;;;;2.40;0.50;;;4.90;97.10;;;;;;4902580;29;20446;-81
2022/12/30 05:36:14;;;;;;;5.00;0.85;;;4.90;97.10;;;;;;4914290;29;20051;-81
2022/12/30 05:38:42;;;;;;;5.70;0.95;;;4.90;97.10;;;;;;4893799;29;20039;-81
2022/12/30 05:41:10;;;;;;;5.55;0.98;;;5.00;97.10;;;;;;4913802;29;20064;-82
2022/12/30 05:43:49;;;;;;;5.18;1.00;;;5.00;97.10;;;;;;4918133;29;20071;-81
2022/12/30 05:46:16;;;;;;;10.88;1.02;;;5.00;97.10;;;;;;4898182;29;20086;-82
2022/12/30 05:48:44;;;;;;;2.50;0.63;;;5.00;97.10;;;;;;4907642;29;20448;-82
2022/12/30 05:51:11;;;;;;;7.65;1.42;;;5.00;97.00;;;;;;4922435;29;20099;-82
2022/12/30 05:53:41;;;;;;;4.75;0.60;;;5.00;97.00;;;;;;4908812;29;20064;-81
2022/12/30 05:56:08;;;;;;;4.45;0.60;;;5.00;97.10;;;;;;4942738;29;20215;-81
2022/12/30 05:58:37;;;;;;;5.53;1.00;;;5.00;97.10;;;;;;4922653;29;20867;-83
2022/12/30 06:01:04;;;;;;;4.60;0.98;;;5.00;97.10;;;;;;4894049;29;20106;-82
2022/12/30 06:03:32;;;;;;;7.10;0.90;;;5.00;97.10;;;;;;4927039;29;20047;-82
2022/12/30 06:06:03;;;;;;;5.57;1.10;;;5.10;97.10;;;;;;4922659;29;20047;-82
2022/12/30 06:08:31;;;;;;;6.30;0.90;;;5.10;97.10;;;;;;4912301;29;20067;-83
2022/12/30 06:10:57;;;;;;;3.38;0.65;;;5.10;97.10;;;;;;4916005;29;20460;-82
2022/12/30 06:13:25;;;;;;;6.40;0.90;;;5.10;97.10;;;;;;4911851;29;20044;-82
2022/12/30 06:15:55;;;;;;;5.20;1.02;;;5.10;97.10;;;;;;4924281;29;20059;-83
2022/12/30 06:18:29;;;;;;;2.50;0.60;;;5.10;97.10;;;;;;4914827;29;20062;-85
2022/12/30 06:20:56;;;;;;;6.80;0.80;;;5.10;97.10;;;;;;4917470;29;20051;-84
2022/12/30 06:23:23;;;;;;;5.43;0.80;;;5.10;97.20;;;;;;4887516;29;20039;-85
2022/12/30 06:25:55;;;;;;;4.72;0.80;;;5.10;97.20;;;;;;4897449;29;20104;-85
2022/12/30 06:28:23;;;;;;;5.80;1.33;;;5.10;97.20;;;;;;4918741;29;20058;-85
2022/12/30 06:30:51;;;;;;;3.45;0.63;;;5.10;97.20;;;;;;4898405;29;20454;-85
2022/12/30 06:33:19;;;;;;;5.38;0.93;;;5.10;97.20;;;;;;4917267;29;20078;-85
2022/12/30 06:35:47;;;;;;;2.88;0.90;;;5.10;97.20;;;;;;4930762;29;20044;-85
2022/12/30 06:38:14;;;;;;;3.40;0.93;;;5.10;97.20;;;;;;4916004;29;20106;-85
2022/12/30 06:40:44;;;;;;;4.22;0.73;;;5.10;97.20;;;;;;4903555;29;20036;-85
2022/12/30 06:43:12;;;;;;;3.30;0.90;;;5.10;97.20;;;;;;4909625;29;20047;-87
2022/12/30 06:45:39;;;;;;;1.92;0.63;;;5.10;97.20;;;;;;4922876;29;20047;-85
2022/12/30 06:48:06;;;;;;;2.78;0.60;;;5.10;97.20;;;;;;4911655;29;20095;-86
2022/12/30 06:50:33;;;;;;;4.25;0.60;;;5.10;97.20;;;;;;4921305;29;20522;-86
2022/12/30 06:53:00;;;;;;;3.03;0.52;;;5.10;97.20;;;;;;4897736;29;20067;-84
2022/12/30 06:55:27;;;;;;;4.85;0.90;;;5.10;97.20;;;;;;4916101;29;20054;-85
2022/12/30 06:58:02;;;;;;;3.90;0.60;;;5.10;97.30;;;;;;4911492;29;20090;-85
2022/12/30 07:00:29;;;;;;;3.83;0.70;;;5.10;97.30;;;;;;4908511;29;20036;-84
2022/12/30 07:02:56;;;;;;;2.97;1.00;;;5.10;97.30;;;;;;4914993;29;20126;-83
2022/12/30 07:05:23;;;;;;;5.65;0.45;;;5.10;97.30;;;;;;4930670;29;20047;-83
2022/12/30 07:07:50;;;;;;;4.93;0.70;;;5.10;97.30;;;;;;4908018;29;20044;-83
2022/12/30 07:10:20;;;;;;;2.78;1.23;;;5.10;97.30;;;;;;4877226;29;20043;-83
2022/12/30 07:12:47;;;;;;;4.88;0.73;;;5.10;97.40;;;;;;4912630;29;20032;-86
2022/12/30 07:15:14;;;;;;;3.65;0.50;;;5.10;97.30;;;;;;4893661;29;20056;-84
2022/12/30 07:17:41;;;;;;;3.47;0.70;;;5.10;97.30;;;;;;4915705;29;20055;-84
2022/12/30 07:20:08;;;;;;;3.63;0.75;;;5.10;97.30;;;;;;4910540;29;20054;-83
2022/12/30 07:22:35;;;;;;;1.98;0.65;;;5.10;97.30;;;;;;4907660;29;20051;-84
2022/12/30 07:25:02;;;;;;;4.07;0.60;;;5.10;97.30;;;;;;4880837;29;20052;-84
2022/12/30 07:27:29;;;;;;;2.95;0.50;;;5.10;97.40;;;;;;4934404;29;20114;-84
2022/12/30 07:29:56;;;;;;;5.60;0.70;;;5.10;97.40;;;;;;4899271;29;20047;-88
2022/12/30 07:32:23;;;;;;;4.50;0.98;;;5.10;97.40;;;;;;4911990;29;20043;-84
2022/12/30 07:34:51;;;;;;;3.28;0.60;;;5.10;97.40;;;;;;4909249;29;20043;-84
2022/12/30 07:37:21;;;;;;;2.58;0.77;;;5.20;97.30;;;;;;4910503;29;20085;-83
2022/12/30 07:39:48;;;;;;;4.82;0.80;;;5.10;97.30;;;;;;4913235;29;20043;-83
2022/12/30 07:42:15;;;;;;;3.25;0.50;;;5.20;97.40;;;;;;4894569;29;20058;-83
2022/12/30 07:44:42;;;;;;;3.40;0.55;;;5.20;97.30;;;;;;4899269;29;20048;-85
2022/12/30 07:47:09;;;;;;;3.65;0.73;;;5.20;97.30;;;;;;4934701;29;20043;-85
2022/12/30 07:49:36;;;;;;;4.70;1.13;;;5.20;97.30;;;;;;4890259;29;20044;-85
2022/12/30 07:52:05;;;;;;;4.88;0.90;;;5.20;97.60;;;;;;4919587;29;20043;-85
2022/12/30 07:54:32;;;;;;;3.97;0.70;;;5.30;97.40;;;;;;4912729;29;20059;-85
2022/12/30 07:57:00;;;;;;;5.53;0.70;;;5.40;97.40;;;;;;4924642;29;20059;-84
2022/12/30 07:59:27;;;;;;;3.50;1.00;;;5.40;97.30;;;;;;4914050;29;20047;-85
2022/12/30 08:01:54;;;;;;;7.15;1.50;;;5.40;97.30;;;;;;4894267;29;20139;-84
2022/12/30 08:04:21;;;;;;;7.88;2.53;;;5.50;97.30;;;;;;4904280;29;20047;-85
2022/12/30 08:07:10;;;;;;;4.15;0.60;;;5.50;97.30;;;;;;4908432;29;20059;-84
2022/12/30 08:09:38;;;;;;;4.47;0.90;;;5.50;97.30;;;;;;4880871;29;20130;-85
2022/12/30 08:12:05;;;;;;;5.40;0.55;;;5.50;97.20;;;;;;4897187;29;20047;-85
2022/12/30 08:14:32;;;;;;;7.78;0.93;;;5.50;97.20;;;;;;4878851;29;20054;-85
2022/12/30 08:16:59;;;;;;;2.05;0.70;;;5.60;97.20;;;;;;4908586;29;20043;-85
2022/12/30 08:19:28;;;;;;;4.10;0.80;;;5.60;97.20;;;;;;4892498;29;20090;-85
2022/12/30 08:21:54;;;;;;;6.63;1.13;;;5.70;97.20;;;;;;4912332;29;20106;-85
2022/12/30 08:24:21;;;;;;;8.05;1.05;;;5.70;97.20;;;;;;4909225;29;20093;-85
2022/12/30 08:26:49;;;;;;;2.17;0.70;;;5.70;97.20;;;;;;4910760;29;20139;-85
2022/12/30 08:29:16;;;;;;;5.13;0.68;;;5.70;97.20;;;;;;4899064;29;20043;-85
2022/12/30 08:31:49;;;;;;;4.60;1.05;;;5.70;97.10;;;;;;4913626;29;20046;-85
2022/12/30 08:34:18;;;;;;;3.47;0.80;;;5.80;97.10;;;;;;4912175;29;20050;-85
2022/12/30 08:36:46;;;;;;;2.53;0.80;;;5.80;97.10;;;;;;4906469;29;20040;-85
2022/12/30 08:39:13;;;;;;;2.85;0.60;;;5.80;97.10;;;;;;4923815;29;20047;-84
2022/12/30 08:41:43;;;;;;;5.60;0.90;;;5.80;97.10;;;;;;4923880;29;20051;-85
2022/12/30 08:44:17;;;;;;;5.28;0.70;;;5.90;97.10;;;;;;4929791;29;20052;-85
2022/12/30 08:46:44;;;;;;;2.22;0.55;;;5.90;97.10;;;;;;4895491;29;20043;-85
2022/12/30 08:49:11;;;;;;;2.88;0.60;;;6.00;97.10;;;;;;4895075;29;20053;-85
2022/12/30 08:51:39;;;;;;;1.52;0.50;;;6.00;97.00;;;;;;4897392;29;20040;-85
2022/12/30 08:54:06;;;;;;;3.35;0.73;;;6.10;97.00;;;;;;4908376;29;20086;-85
2022/12/30 08:56:35;;;;;;;4.32;0.93;;;6.10;97.00;;;;;;4913777;29;20075;-84
2022/12/30 08:59:03;;;;;;;5.20;0.93;;;6.10;97.00;;;;;;4936446;29;20410;-85
2022/12/30 09:01:36;;;;;;;5.43;0.68;;;6.10;96.90;;;;;;4915246;29;20144;-85
2022/12/30 09:04:06;;;;;;;3.15;0.50;;;6.20;97.20;;;;;;4917712;29;20520;-86
2022/12/30 09:06:36;;;;;;;7.25;0.85;;;6.20;96.90;;;;;;4905201;29;20044;-86
2022/12/30 09:09:07;;;;;;;3.22;0.60;;;6.30;96.90;;;;;;4933716;29;20130;-85
2022/12/30 09:11:37;;;;;;;1.58;0.50;;;6.30;96.80;;;;;;4920027;29;20040;-85
2022/12/30 09:14:06;;;;;;;3.40;0.60;;;6.40;96.80;;;;;;4917964;29;20050;-85
2022/12/30 09:16:33;;;;;;;2.88;0.65;;;6.40;97.10;;;;;;4932296;29;20040;-85
2022/12/30 09:19:00;;;;;;;2.90;0.55;;;6.40;96.80;;;;;;4895801;29;20052;-85
2022/12/30 09:21:27;;;;;;;0.93;0.30;;;6.50;96.80;;;;;;4904513;29;20051;-86
2022/12/30 09:23:55;;;;;;;1.45;0.40;;;6.50;96.80;;;;;;4904471;29;20058;-86
2022/12/30 09:26:24;;;;;;;2.65;1.02;;;6.50;96.70;;;;;;4906008;29;20055;-85
2022/12/30 09:28:55;;;;;;;3.17;0.40;;;6.50;96.70;;;;;;4904110;29;20118;-86
2022/12/30 09:31:25;;;;;;;1.90;0.50;;;6.60;96.70;;;;;;4911063;29;20049;-86
2022/12/30 09:33:53;;;;;;;3.25;0.60;;;6.60;96.70;;;;;;4909657;29;20074;-85
2022/12/30 09:36:20;;;;;;;4.45;0.60;;;6.60;96.70;;;;;;4926682;29;20043;-86
2022/12/30 09:38:48;;;;;;;2.00;0.50;;;6.70;96.60;;;;;;4932699;29;20079;-85
2022/12/30 09:43:15;;;;;;;1.77;0.40;;;6.60;96.80;;;;;;4913884;29;20142;-85
2022/12/30 09:44:23;;;;;;;4.22;0.52;;;6.70;96.60;;;;;;4925620;28;20048;-85
2022/12/30 09:47:05;;;;;;;1.75;0.35;;;6.70;96.50;;;;;;4922197;29;20489;-85
2022/12/30 09:49:39;;;;;;;2.63;0.52;;;6.70;96.50;;;;;;4911670;29;20047;-85
2022/12/30 09:52:16;;;;;;;1.55;0.60;;;6.80;96.50;;;;;;4924687;29;20102;-85
2022/12/30 09:54:58;;;;;;;2.35;0.43;;;6.80;96.50;;;;;;4913540;29;20051;-85
2022/12/30 09:57:32;;;;;;;1.73;0.60;;;6.80;96.40;;;;;;4907569;29;20147;-85
2022/12/30 10:00:18;;;;;;;2.65;0.60;;;6.90;96.40;;;;;;4898786;29;20051;-85
2022/12/30 10:02:57;;;;;;;1.90;0.40;;;6.90;96.40;;;;;;4921983;29;20075;-85
2022/12/30 10:05:35;;;;;;;1.50;0.38;;;7.00;96.40;;;;;;4909887;29;20499;-86
2022/12/30 10:08:26;;;;;;;2.90;0.40;;;7.00;96.40;;;;;;4912903;29;20074;-86
2022/12/30 10:11:26;;;;;;;1.67;0.40;;;7.00;96.40;;;;;;4935687;29;20047;-86
2022/12/30 10:14:03;;;;;;;0.60;0.25;;;7.00;96.30;;;;;;4916041;29;20058;-85
2022/12/30 10:16:41;;;;;;;3.10;0.30;;;7.10;96.40;;;;;;4915874;29;20048;-85
2022/12/30 10:19:26;;;;;;;1.08;0.52;;;7.10;96.30;;;;;;4917137;29;20079;-86
2022/12/30 10:22:01;;;;;;;5.78;0.40;;;7.20;96.30;;;;;;4901649;29;20490;-85
2022/12/30 10:24:34;;;;;;;2.83;0.60;;;7.20;96.30;;;;;;4922187;29;20051;-85
2022/12/30 10:27:12;;;;;;;8.10;0.45;;;7.20;96.30;;;;;;4903156;29;20071;-86
2022/12/30 10:29:43;;;;;;;3.35;0.40;;;7.20;96.20;;;;;;4903525;29;20054;-85
2022/12/30 10:32:20;;;;;;;2.25;0.32;;;7.30;96.20;;;;;;4917673;29;20543;-85
2022/12/30 10:34:50;;;;;;;1.70;0.40;;;7.30;96.20;;;;;;4905481;29;20055;-85
2022/12/30 10:37:32;;;;;;;3.42;0.50;;;7.30;96.20;;;;;;4922595;28;20047;-85
2022/12/30 10:40:01;;;;;;;2.45;0.60;;;7.30;96.00;;;;;;4922144;29;20051;-85
2022/12/30 10:42:43;;;;;;;3.20;0.30;;;7.30;96.10;;;;;;4903847;29;20057;-85
2022/12/30 10:45:10;;;;;;;1.13;0.50;;;7.40;96.10;;;;;;4901359;29;20073;-85
2022/12/30 10:48:04;;;;;;;4.20;0.50;;;7.30;96.10;;;;;;4934211;29;20040;-85
2022/12/30 10:50:36;;;;;;;3.92;0.40;;;7.40;96.00;;;;;;4906071;29;20063;-85
2022/12/30 10:53:07;;;;;;;2.15;0.32;;;7.50;96.00;;;;;;4919504;29;20055;-85
2022/12/30 10:55:46;;;;;;;3.72;0.38;;;7.50;96.00;;;;;;4919015;29;20043;-85
2022/12/30 10:58:24;;;;;;;2.92;0.88;;;7.50;95.90;;;;;;4928938;29;20502;-85
2022/12/30 11:00:55;;;;;;;2.72;0.40;;;7.50;95.90;;;;;;4927096;29;20102;-85
2022/12/30 11:03:32;;;;;;;3.65;0.35;;;7.50;95.90;;;;;;4926986;29;20047;-85
2022/12/30 11:06:22;;;;;;;0.82;0.43;;;7.60;96.20;;;;;;4934535;29;20134;-85
2022/12/30 11:08:50;;;;;;;2.17;0.45;;;7.60;95.90;;;;;;4907817;29;20047;-86
2022/12/30 11:11:17;;;;;;;3.05;0.40;;;7.60;95.80;;;;;;4914199;29;20431;-86
2022/12/30 11:16:41;;;;;;;2.42;0.32;;;7.70;95.80;;;;;;4928400;29;20071;-85
2022/12/30 11:19:24;;;;;;;3.63;0.60;;;7.70;95.80;;;;;;4908872;29;20055;-85
2022/12/30 11:21:54;;;;;;;2.45;0.38;;;7.70;95.80;;;;;;4915987;29;20395;-85
2022/12/30 11:24:25;;;;;;;2.83;0.50;;;7.70;95.80;;;;;;4905521;29;20054;-85
2022/12/30 11:26:54;;;;;;;1.63;0.40;;;7.70;95.80;;;;;;4919171;29;20233;-85
2022/12/30 11:29:26;;;;;;;1.77;0.30;;;7.80;95.80;;;;;;4917117;29;20089;-84
2022/12/30 11:31:54;;;;;;;1.75;0.40;;;7.80;95.80;;;;;;4924804;29;20501;-83
2022/12/30 11:34:28;;;;;;;3.08;0.35;;;7.80;95.70;;;;;;4914975;29;20051;-83
2022/12/30 11:36:55;;;;;;;1.55;0.40;;;7.80;95.70;;;;;;4938101;29;20044;-84
2022/12/30 11:39:24;;;;;;;3.45;0.38;;;7.80;95.70;;;;;;4906132;29;20044;-84
2022/12/30 11:42:00;;;;;;;0.47;0.20;;;7.80;95.70;;;;;;4915480;29;20048;-84
2022/12/30 11:44:31;;;;;;;0.70;0.20;;;7.90;95.70;;;;;;4913237;29;20048;-84
2022/12/30 11:47:08;;;;;;;1.20;0.20;;;7.90;95.70;;;;;;4930191;29;20086;-84
2022/12/30 11:49:50;;;;;;;1.48;0.30;;;7.90;95.60;;;;;;4917417;29;20052;-85
2022/12/30 11:52:25;;;;;;;5.88;0.35;;;7.90;95.60;;;;;;4905825;29;20043;-86
2022/12/30 11:55:02;;;;;;;1.48;0.20;;;7.90;95.60;;;;;;4905787;29;20508;-87
2022/12/30 11:57:41;;;;;;;1.23;0.30;;;7.90;95.60;;;;;;4922993;29;20051;-85
2022/12/30 12:00:12;;;;;;;1.55;0.30;;;7.90;95.60;;;;;;4924866;29;20055;-86
2022/12/30 12:02:45;;;;;;;1.15;0.28;;;7.90;95.60;;;;;;4906980;29;20528;-84
2022/12/30 12:05:39;;;;;;;2.55;0.20;;;7.90;95.60;;;;;;4905517;29;20054;-84
2022/12/30 12:08:26;;;;;;;1.58;0.40;;;7.90;95.50;;;;;;4933440;29;20043;-88
2022/12/30 12:10:56;;;;;;;2.30;0.40;;;7.90;95.50;;;;;;4919253;29;20051;-87
2022/12/30 12:13:51;;;;;;;2.83;0.30;;;7.90;95.60;;;;;;4914493;28;20055;-88
2022/12/30 12:16:32;;;;;;;1.98;0.30;;;8.00;95.50;;;;;;4919230;29;20052;-84
2022/12/30 12:19:10;;;;;;;1.10;0.30;;;8.00;95.50;;;;;;4929136;29;20052;-85
2022/12/30 12:21:40;;;;;;;1.08;0.20;;;8.00;95.60;;;;;;4924101;29;20055;-85
2022/12/30 12:24:32;;;;;;;1.38;0.28;;;8.00;95.50;;;;;;4929903;29;20414;-84
2022/12/30 12:27:18;;;;;;;0.70;0.20;;;8.10;95.50;;;;;;4914341;29;20051;-88
2022/12/30 12:29:46;;;;;;;0.93;0.20;;;8.10;95.40;;;;;;4908318;29;20047;-87
2022/12/30 12:32:57;;;;;;;1.77;0.20;;;8.10;95.40;;;;;;4886923;29;20044;-87
2022/12/30 12:35:50;;;;;;;1.95;0.20;;;8.20;95.40;;;;;;4934733;29;20052;-87
2022/12/30 12:38:27;;;;;;;0.98;0.20;;;8.20;95.40;;;;;;4918730;29;20048;-84
2022/12/30 12:41:18;;;;;;;1.00;0.20;;;8.20;95.30;;;;;;4917134;29;20055;-84
2022/12/30 12:44:09;;;;;;;1.90;0.22;;;8.20;95.30;;;;;;4908590;29;20059;-84
2022/12/30 12:46:58;;;;;;;1.55;0.20;;;8.20;95.30;;;;;;4915134;29;20051;-89
2022/12/30 12:49:44;;;;;;;1.25;0.38;;;8.30;95.20;;;;;;4906023;29;20471;-84
2022/12/30 12:52:53;;;;;;;1.20;0.35;;;8.30;95.20;;;;;;4914933;29;20082;-83
2022/12/30 12:55:43;;;;;;;2.50;0.20;;;8.40;95.20;;;;;;4905172;29;20216;-83
2022/12/30 12:58:13;;;;;;;3.70;0.20;;;8.30;95.10;;;;;;4888069;29;20054;-83
2022/12/30 13:00:52;;;;;;;2.10;0.30;;;8.30;95.20;;;;;;4921319;29;20048;-83
2022/12/30 13:03:38;;;;;;;3.10;0.50;;;8.20;95.20;;;;;;4939209;29;20066;-87
2022/12/30 13:06:45;;;;;;;1.45;0.30;;;8.30;95.30;;;;;;4905956;29;20070;-85
2022/12/30 13:10:04;;;;;;;2.22;0.40;;;8.30;95.30;;;;;;4914255;29;20059;-84
2022/12/30 13:12:53;;;;;;;1.30;0.30;;;8.20;95.40;;;;;;4901827;29;20044;-85
2022/12/30 13:15:22;;;;;;;2.42;0.28;;;8.20;95.40;;;;;;4904475;29;20115;-84
2022/12/30 13:18:01;;;;;;;2.92;0.43;;;8.20;95.50;;;;;;4933266;29;20043;-87
2022/12/30 13:20:46;;;;;;;1.30;0.20;;;8.10;95.50;;;;;;4937707;29;20069;-83
2022/12/30 13:23:17;;;;;;;2.00;0.45;;;8.10;95.50;;;;;;4918834;29;20071;-83
2022/12/30 13:25:51;;;;;;;2.00;0.35;;;8.10;95.60;;;;;;4923364;29;20047;-82
2022/12/30 13:28:27;;;;;;;0.95;0.20;;;8.00;95.70;;;;;;4909711;29;20048;-84
2022/12/30 13:31:12;;;;;;;0.30;0.20;;;8.10;95.80;;;;;;4914239;29;20075;-83
2022/12/30 13:33:45;;;;;;;1.52;0.40;;;8.00;95.80;;;;;;4918811;29;20040;-83
2022/12/30 13:36:25;;;;;;;3.03;0.30;;;8.10;95.80;;;;;;4929818;29;20050;-85
2022/12/30 13:38:52;;;;;;;3.55;0.38;;;8.10;95.90;;;;;;4909414;29;20058;-84
2022/12/30 13:41:39;;;;;;;1.52;0.30;;;8.10;95.90;;;;;;4912690;29;20055;-84
2022/12/30 13:44:14;;;;;;;3.38;0.50;;;8.00;95.90;;;;;;4917028;29;20051;-85
2022/12/30 13:46:48;;;;;;;2.85;0.32;;;8.10;96.00;;;;;;4903871;29;20517;-84
2022/12/30 13:49:28;;;;;;;1.95;0.35;;;8.00;96.00;;;;;;4912754;29;20138;-85
2022/12/30 13:52:01;;;;;;;1.02;0.20;;;8.00;96.00;;;;;;4924679;29;20490;-90
2022/12/30 13:54:31;;;;;;;1.85;0.50;;;8.00;96.10;;;;;;4919529;29;20426;-87
2022/12/30 13:57:02;;;;;;;3.72;0.40;;;8.00;96.20;;;;;;4919247;29;20051;-85
2022/12/30 13:59:35;;;;;;;2.72;0.40;;;8.00;96.20;;;;;;4916786;29;20051;-89
2022/12/30 14:02:18;;;;;;;2.90;0.70;;;8.00;96.20;;;;;;4885797;29;20410;-91
2022/12/30 14:04:56;;;;;;;;;;;8.00;96.30;;;;;;4922546;29;20051;-88
2022/12/30 14:07:38;;;;;;;2.92;0.40;;;7.90;96.30;;;;;;4930624;29;19923;-91
2022/12/30 14:10:25;;;;;;;4.38;0.50;;;8.00;96.30;;;;;;4910547;29;20050;-84
2022/12/30 14:13:13;;;;;;;4.03;0.45;;;8.00;96.40;;;;;;4901177;29;20040;-84
2022/12/30 14:15:41;;;;;;;2.50;0.32;;;8.00;96.40;;;;;;4886111;29;20082;-86
2022/12/30 14:18:16;;;;;;;1.17;0.30;;;8.00;96.40;;;;;;4928051;29;20085;-84
2022/12/30 14:21:03;;;;;;;1.42;0.30;;;8.00;96.40;;;;;;4909603;29;20044;-84
2022/12/30 14:23:44;;;;;;;2.55;0.30;;;8.00;96.50;;;;;;4924444;29;20040;-85
2022/12/30 14:26:20;;;;;;;2.58;0.30;;;8.00;96.50;;;;;;4917702;29;20203;-87
2022/12/30 14:29:04;;;;;;;1.15;0.30;;;8.00;96.50;;;;;;4903552;29;20044;-84